sensor_id;sensor_type;location;lat;lon;timestamp;pressure;altitude;pressure_sealevel;temperature;humidity
3294;BME280;1659;51.470;6.770;2023-02-19T00:01:17;101593.94;;;10.25;100.00
3294;BME280;1659;51.470;6.770;2023-02-19T00:03:48;101591.31;;;10.25;100.00
3294;BME280;1659;51.470;6.770;2023-02-19T00:06:17;101593.94;;;10.26;100.00
3294;BME280;1659;51.470;6.770;2023-02-19T00:08:44;101598.34;;;10.26;100.00
3294;BME280;1659;51.470;6.770;2023-02-19T00:11:15;101607.16;;;10.25;100.00
3294;BME280;1659;51.470;6.770;2023-02-19T00:13:43;101597.44;;;10.25;100.00
3294;BME280;1659;51.470;6.770;2023-02-19T00:16:12;101591.31;;;10.25;100.00
3294;BME280;1659;51.470;6.770;2023-02-19T00:18:39;101592.16;;;10.24;100.00
3294;BME280;1659;51.470;6.770;2023-02-19T00:21:06;101587.78;;;10.24;100.00
3294;BME280;1659;51.470;6.770;2023-02-19T00:23:33;101589.53;;;10.22;100.00
3294;BME280;1659;51.470;6.770;2023-02-19T00:26:01;101586.03;;;10.21;100.00
3294;BME280;1659;51.470;6.770;2023-02-19T00:28:29;101578.09;;;10.20;100.00
3294;BME280;1659;51.470;6.770;2023-02-19T00:31:03;101582.50;;;10.18;100.00
3294;BME280;1659;51.470;6.770;2023-02-19T00:33:30;101575.50;;;10.15;100.00
3294;BME280;1659;51.470;6.770;2023-02-19T00:35:58;101576.38;;;10.14;100.00
3294;BME280;1659;51.470;6.770;2023-02-19T00:38:25;101571.09;;;10.13;100.00
3294;BME280;1659;51.470;6.770;2023-02-19T00:40:52;101580.78;;;10.12;100.00
3294;BME280;1659;51.470;6.770;2023-02-19T00:43:18;101579.91;;;10.12;100.00
3294;BME280;1659;51.470;6.770;2023-02-19T00:45:46;101572.00;;;10.12;100.00
3294;BME280;1659;51.470;6.770;2023-02-19T00:48:13;101561.44;;;10.12;100.00
3294;BME280;1659;51.470;6.770;2023-02-19T00:50:39;101571.09;;;10.13;100.00
3294;BME280;1659;51.470;6.770;2023-02-19T00:53:06;101566.72;;;10.12;100.00
3294;BME280;1659;51.470;6.770;2023-02-19T00:55:32;101564.06;;;10.12;100.00
3294;BME280;1659;51.470;6.770;2023-02-19T00:57:59;101546.44;;;10.12;100.00
3294;BME280;1659;51.470;6.770;2023-02-19T01:00:25;101571.09;;;10.13;100.00
3294;BME280;1659;51.470;6.770;2023-02-19T01:02:53;101555.25;;;10.14;100.00
3294;BME280;1659;51.470;6.770;2023-02-19T01:05:20;101566.69;;;10.13;100.00
3294;BME280;1659;51.470;6.770;2023-02-19T01:07:47;101570.22;;;10.12;100.00
3294;BME280;1659;51.470;6.770;2023-02-19T01:12:39;101566.72;;;10.12;100.00
3294;BME280;1659;51.470;6.770;2023-02-19T01:15:07;101570.22;;;10.11;100.00
3294;BME280;1659;51.470;6.770;2023-02-19T01:17:34;101563.16;;;10.10;100.00
3294;BME280;1659;51.470;6.770;2023-02-19T01:20:02;101564.94;;;10.09;100.00
3294;BME280;1659;51.470;6.770;2023-02-19T01:22:29;101567.59;;;10.09;100.00
3294;BME280;1659;51.470;6.770;2023-02-19T01:24:55;101562.31;;;10.08;100.00
3294;BME280;1659;51.470;6.770;2023-02-19T01:27:22;101563.22;;;10.07;100.00
3294;BME280;1659;51.470;6.770;2023-02-19T01:29:48;101575.50;;;10.05;100.00
3294;BME280;1659;51.470;6.770;2023-02-19T01:32:15;101557.06;;;10.01;100.00
3294;BME280;1659;51.470;6.770;2023-02-19T01:34:41;101556.19;;;9.99;100.00
3294;BME280;1659;51.470;6.770;2023-02-19T01:37:09;101560.56;;;9.99;100.00
3294;BME280;1659;51.470;6.770;2023-02-19T01:39:36;101561.47;;;9.96;100.00
3294;BME280;1659;51.470;6.770;2023-02-19T01:42:03;101560.59;;;9.96;100.00
3294;BME280;1659;51.470;6.770;2023-02-19T01:45:14;101563.25;;;9.94;100.00
3294;BME280;1659;51.470;6.770;2023-02-19T01:47:43;101564.13;;;9.95;100.00
3294;BME280;1659;51.470;6.770;2023-02-19T01:50:10;101573.81;;;9.93;100.00
3294;BME280;1659;51.470;6.770;2023-02-19T01:52:38;101563.25;;;9.93;100.00
3294;BME280;1659;51.470;6.770;2023-02-19T01:55:07;101562.34;;;9.94;100.00
3294;BME280;1659;51.470;6.770;2023-02-19T01:57:39;101575.56;;;9.92;100.00
3294;BME280;1659;51.470;6.770;2023-02-19T02:00:08;101578.19;;;9.92;100.00
3294;BME280;1659;51.470;6.770;2023-02-19T02:02:37;101574.69;;;9.92;100.00
3294;BME280;1659;51.470;6.770;2023-02-19T02:05:10;101562.34;;;9.92;100.00
3294;BME280;1659;51.470;6.770;2023-02-19T02:07:42;101569.41;;;9.93;100.00
3294;BME280;1659;51.470;6.770;2023-02-19T02:10:26;101567.63;;;9.92;100.00
3294;BME280;1659;51.470;6.770;2023-02-19T02:12:57;101579.97;;;9.92;100.00
3294;BME280;1659;51.470;6.770;2023-02-19T02:15:27;101573.81;;;9.91;100.00
3294;BME280;1659;51.470;6.770;2023-02-19T02:17:58;101572.94;;;9.91;100.00
3294;BME280;1659;51.470;6.770;2023-02-19T02:20:34;101577.31;;;9.90;100.00
3294;BME280;1659;51.470;6.770;2023-02-19T02:23:15;101582.59;;;9.90;100.00
3294;BME280;1659;51.470;6.770;2023-02-19T02:26:09;101579.97;;;9.90;100.00
3294;BME280;1659;51.470;6.770;2023-02-19T02:31:51;101587.88;;;9.89;100.00
3294;BME280;1659;51.470;6.770;2023-02-19T02:34:23;101576.47;;;9.88;100.00
3294;BME280;1659;51.470;6.770;2023-02-19T02:36:54;101576.47;;;9.88;100.00
3294;BME280;1659;51.470;6.770;2023-02-19T02:39:24;101576.47;;;9.88;100.00
3294;BME280;1659;51.470;6.770;2023-02-19T02:41:55;101572.94;;;9.88;100.00
3294;BME280;1659;51.470;6.770;2023-02-19T02:44:35;101577.31;;;9.89;100.00
3294;BME280;1659;51.470;6.770;2023-02-19T02:47:05;101575.59;;;9.88;100.00
3294;BME280;1659;51.470;6.770;2023-02-19T02:49:52;101579.97;;;9.89;100.00
3294;BME280;1659;51.470;6.770;2023-02-19T02:52:31;101577.31;;;9.87;100.00
3294;BME280;1659;51.470;6.770;2023-02-19T02:55:16;101585.25;;;9.89;100.00
3294;BME280;1659;51.470;6.770;2023-02-19T02:57:44;101576.47;;;9.88;100.00
3294;BME280;1659;51.470;6.770;2023-02-19T03:02:42;101579.97;;;9.87;100.00
3294;BME280;1659;51.470;6.770;2023-02-19T03:05:11;101589.66;;;9.88;100.00
3294;BME280;1659;51.470;6.770;2023-02-19T03:07:59;101583.50;;;9.86;100.00
3294;BME280;1659;51.470;6.770;2023-02-19T03:10:34;101593.16;;;9.87;100.00
3294;BME280;1659;51.470;6.770;2023-02-19T03:13:03;101588.78;;;9.86;100.00
3294;BME280;1659;51.470;6.770;2023-02-19T03:15:54;101596.72;;;9.86;100.00
3294;BME280;1659;51.470;6.770;2023-02-19T03:18:42;101600.22;;;9.85;100.00
3294;BME280;1659;51.470;6.770;2023-02-19T03:21:30;101602.00;;;9.85;100.00
3294;BME280;1659;51.470;6.770;2023-02-19T03:24:00;101609.00;;;9.87;100.00
3294;BME280;1659;51.470;6.770;2023-02-19T03:26:47;101604.63;;;9.88;100.00
3294;BME280;1659;51.470;6.770;2023-02-19T03:29:19;101613.41;;;9.88;100.00
3294;BME280;1659;51.470;6.770;2023-02-19T03:31:54;101620.47;;;9.88;100.00
3294;BME280;1659;51.470;6.770;2023-02-19T03:34:26;101616.06;;;9.85;100.00
3294;BME280;1659;51.470;6.770;2023-02-19T03:37:00;101622.22;;;9.87;100.00
3294;BME280;1659;51.470;6.770;2023-02-19T03:39:31;101616.06;;;9.85;100.00
3294;BME280;1659;51.470;6.770;2023-02-19T03:42:15;101631.91;;;9.85;100.00
3294;BME280;1659;51.470;6.770;2023-02-19T03:44:46;101626.63;;;9.85;100.00
3294;BME280;1659;51.470;6.770;2023-02-19T03:47:20;101627.53;;;9.86;100.00
3294;BME280;1659;51.470;6.770;2023-02-19T03:49:53;101626.63;;;9.85;100.00
3294;BME280;1659;51.470;6.770;2023-02-19T03:52:31;101634.56;;;9.82;100.00
3294;BME280;1659;51.470;6.770;2023-02-19T03:55:04;101644.25;;;9.77;100.00
3294;BME280;1659;51.470;6.770;2023-02-19T03:57:36;101642.47;;;9.73;100.00
3294;BME280;1659;51.470;6.770;2023-02-19T04:00:08;101642.47;;;9.70;100.00
3294;BME280;1659;51.470;6.770;2023-02-19T04:02:41;101647.78;;;9.67;100.00
3294;BME280;1659;51.470;6.770;2023-02-19T04:05:14;101645.13;;;9.63;100.00
3294;BME280;1659;51.470;6.770;2023-02-19T04:07:44;101650.41;;;9.62;100.00
3294;BME280;1659;51.470;6.770;2023-02-19T04:10:11;101649.53;;;9.61;100.00
3294;BME280;1659;51.470;6.770;2023-02-19T04:12:43;101665.38;;;9.61;100.00
3294;BME280;1659;51.470;6.770;2023-02-19T04:15:12;101668.88;;;9.60;100.00
3294;BME280;1659;51.470;6.770;2023-02-19T04:17:45;101669.78;;;9.59;100.00
3294;BME280;1659;51.470;6.770;2023-02-19T04:20:16;101675.94;;;9.58;100.00
3294;BME280;1659;51.470;6.770;2023-02-19T04:22:44;101680.34;;;9.58;100.00
3294;BME280;1659;51.470;6.770;2023-02-19T04:25:11;101675.91;;;9.55;100.00
3294;BME280;1659;51.470;6.770;2023-02-19T04:27:38;101679.47;;;9.54;100.00
3294;BME280;1659;51.470;6.770;2023-02-19T04:30:07;101686.47;;;9.52;100.00
3294;BME280;1659;51.470;6.770;2023-02-19T04:32:34;101682.94;;;9.50;100.00
3294;BME280;1659;51.470;6.770;2023-02-19T04:35:01;101690.00;;;9.48;100.00
3294;BME280;1659;51.470;6.770;2023-02-19T04:37:29;101687.34;;;9.47;100.00
3294;BME280;1659;51.470;6.770;2023-02-19T04:39:55;101693.53;;;9.47;100.00
3294;BME280;1659;51.470;6.770;2023-02-19T04:42:22;101695.25;;;9.45;100.00
3294;BME280;1659;51.470;6.770;2023-02-19T04:44:48;101706.72;;;9.45;100.00
3294;BME280;1659;51.470;6.770;2023-02-19T04:47:15;101703.16;;;9.43;100.00
3294;BME280;1659;51.470;6.770;2023-02-19T04:49:41;101701.44;;;9.42;100.00
3294;BME280;1659;51.470;6.770;2023-02-19T04:52:08;101700.56;;;9.42;100.00
3294;BME280;1659;51.470;6.770;2023-02-19T04:54:36;101704.06;;;9.41;100.00
3294;BME280;1659;51.470;6.770;2023-02-19T04:57:02;101699.66;;;9.41;100.00
3294;BME280;1659;51.470;6.770;2023-02-19T04:59:29;101710.19;;;9.40;100.00
3294;BME280;1659;51.470;6.770;2023-02-19T05:01:56;101706.69;;;9.39;100.00
3294;BME280;1659;51.470;6.770;2023-02-19T05:04:22;101713.75;;;9.40;100.00
3294;BME280;1659;51.470;6.770;2023-02-19T05:06:49;101714.63;;;9.41;100.00
3294;BME280;1659;51.470;6.770;2023-02-19T05:09:15;101716.38;;;9.40;100.00
3294;BME280;1659;51.470;6.770;2023-02-19T05:11:44;101726.94;;;9.40;100.00
3294;BME280;1659;51.470;6.770;2023-02-19T05:14:10;101720.75;;;9.41;100.00
3294;BME280;1659;51.470;6.770;2023-02-19T05:16:37;101722.53;;;9.41;100.00
3294;BME280;1659;51.470;6.770;2023-02-19T05:19:03;101725.16;;;9.41;100.00
3294;BME280;1659;51.470;6.770;2023-02-19T05:21:30;101741.00;;;9.41;100.00
3294;BME280;1659;51.470;6.770;2023-02-19T05:23:56;101737.50;;;9.42;100.00
3294;BME280;1659;51.470;6.770;2023-02-19T05:26:23;101740.13;;;9.40;100.00
3294;BME280;1659;51.470;6.770;2023-02-19T05:28:52;101748.91;;;9.39;100.00
3294;BME280;1659;51.470;6.770;2023-02-19T05:31:19;101750.66;;;9.39;100.00
3294;BME280;1659;51.470;6.770;2023-02-19T05:33:46;101758.56;;;9.37;100.00
3294;BME280;1659;51.470;6.770;2023-02-19T05:36:16;101757.69;;;9.37;100.00
3294;BME280;1659;51.470;6.770;2023-02-19T05:38:43;101754.16;;;9.35;100.00
3294;BME280;1659;51.470;6.770;2023-02-19T05:41:11;101762.97;;;9.35;100.00
3294;BME280;1659;51.470;6.770;2023-02-19T05:43:39;101769.97;;;9.35;100.00
3294;BME280;1659;51.470;6.770;2023-02-19T05:46:08;101770.88;;;9.34;100.00
3294;BME280;1659;51.470;6.770;2023-02-19T05:48:35;101764.72;;;9.32;100.00
3294;BME280;1659;51.470;6.770;2023-02-19T05:51:02;101767.34;;;9.29;100.00
3294;BME280;1659;51.470;6.770;2023-02-19T05:53:29;101772.59;;;9.25;100.00
3294;BME280;1659;51.470;6.770;2023-02-19T05:55:56;101772.59;;;9.24;100.00
3294;BME280;1659;51.470;6.770;2023-02-19T05:58:22;101770.84;;;9.23;100.00
3294;BME280;1659;51.470;6.770;2023-02-19T06:00:49;101768.22;;;9.23;100.00
3294;BME280;1659;51.470;6.770;2023-02-19T06:03:17;101773.47;;;9.21;100.00
3294;BME280;1659;51.470;6.770;2023-02-19T06:05:43;101770.84;;;9.21;100.00
3294;BME280;1659;51.470;6.770;2023-02-19T06:08:11;101777.00;;;9.22;100.00
3294;BME280;1659;51.470;6.770;2023-02-19T06:10:38;101777.00;;;9.22;100.00
3294;BME280;1659;51.470;6.770;2023-02-19T06:13:05;101774.34;;;9.20;100.00
3294;BME280;1659;51.470;6.770;2023-02-19T06:15:32;101785.78;;;9.19;100.00
3294;BME280;1659;51.470;6.770;2023-02-19T06:17:59;101777.88;;;9.18;100.00
3294;BME280;1659;51.470;6.770;2023-02-19T06:20:27;101789.28;;;9.17;100.00
3294;BME280;1659;51.470;6.770;2023-02-19T06:22:54;101795.44;;;9.14;100.00
3294;BME280;1659;51.470;6.770;2023-02-19T06:25:20;101798.06;;;9.14;100.00
3294;BME280;1659;51.470;6.770;2023-02-19T06:27:47;101801.56;;;9.13;100.00
3294;BME280;1659;51.470;6.770;2023-02-19T06:30:13;101800.72;;;9.14;100.00
3294;BME280;1659;51.470;6.770;2023-02-19T06:32:40;101813.88;;;9.13;100.00
3294;BME280;1659;51.470;6.770;2023-02-19T06:35:06;101806.84;;;9.12;100.00
3294;BME280;1659;51.470;6.770;2023-02-19T06:37:34;101815.63;;;9.09;100.00
3294;BME280;1659;51.470;6.770;2023-02-19T06:40:01;101815.63;;;9.07;100.00
3294;BME280;1659;51.470;6.770;2023-02-19T06:42:30;101823.50;;;9.04;100.00
3294;BME280;1659;51.470;6.770;2023-02-19T06:44:57;101816.50;;;9.02;100.00
3294;BME280;1659;51.470;6.770;2023-02-19T06:47:23;101823.47;;;9.00;100.00
3294;BME280;1659;51.470;6.770;2023-02-19T06:49:50;101821.75;;;8.99;100.00
3294;BME280;1659;51.470;6.770;2023-02-19T06:52:16;101836.69;;;8.98;100.00
3294;BME280;1659;51.470;6.770;2023-02-19T06:54:44;101845.47;;;8.97;100.00
3294;BME280;1659;51.470;6.770;2023-02-19T06:57:10;101851.59;;;8.98;100.00
3294;BME280;1659;51.470;6.770;2023-02-19T06:59:37;101861.28;;;8.97;100.00
3294;BME280;1659;51.470;6.770;2023-02-19T07:02:04;101865.69;;;8.98;100.00
3294;BME280;1659;51.470;6.770;2023-02-19T07:04:30;101862.16;;;8.98;100.00
3294;BME280;1659;51.470;6.770;2023-02-19T07:06:57;101865.69;;;8.98;100.00
3294;BME280;1659;51.470;6.770;2023-02-19T07:09:24;101864.78;;;8.98;100.00
3294;BME280;1659;51.470;6.770;2023-02-19T07:11:54;101879.72;;;8.97;100.00
3294;BME280;1659;51.470;6.770;2023-02-19T07:14:20;101875.31;;;8.98;100.00
3294;BME280;1659;51.470;6.770;2023-02-19T07:16:47;101879.72;;;8.97;100.00
3294;BME280;1659;51.470;6.770;2023-02-19T07:19:14;101887.66;;;8.99;100.00
3294;BME280;1659;51.470;6.770;2023-02-19T07:21:41;101890.28;;;8.99;100.00
3294;BME280;1659;51.470;6.770;2023-02-19T07:24:09;101895.59;;;9.02;100.00
3294;BME280;1659;51.470;6.770;2023-02-19T07:26:35;101902.66;;;9.09;100.00
3294;BME280;1659;51.470;6.770;2023-02-19T07:29:03;101910.59;;;9.17;100.00
3294;BME280;1659;51.470;6.770;2023-02-19T07:31:29;101906.28;;;9.28;100.00
3294;BME280;1659;51.470;6.770;2023-02-19T07:33:56;101911.56;;;9.33;100.00
3294;BME280;1659;51.470;6.770;2023-02-19T07:36:23;101907.19;;;9.39;100.00
3294;BME280;1659;51.470;6.770;2023-02-19T07:38:53;101916.03;;;9.46;100.00
3294;BME280;1659;51.470;6.770;2023-02-19T07:41:20;101929.22;;;9.46;100.00
3294;BME280;1659;51.470;6.770;2023-02-19T07:43:47;101930.06;;;9.43;100.00
3294;BME280;1659;51.470;6.770;2023-02-19T07:46:14;101932.72;;;9.47;100.00
3294;BME280;1659;51.470;6.770;2023-02-19T07:48:41;101938.03;;;9.51;100.00
3294;BME280;1659;51.470;6.770;2023-02-19T07:51:11;101939.78;;;9.54;100.00
3294;BME280;1659;51.470;6.770;2023-02-19T07:53:37;101946.81;;;9.52;100.00
3294;BME280;1659;51.470;6.770;2023-02-19T07:56:05;101937.16;;;9.51;100.00
3294;BME280;1659;51.470;6.770;2023-02-19T07:58:33;101950.34;;;9.52;100.00
3294;BME280;1659;51.470;6.770;2023-02-19T08:01:05;101957.41;;;9.56;100.00
3294;BME280;1659;51.470;6.770;2023-02-19T08:03:34;101959.16;;;9.59;100.00
3294;BME280;1659;51.470;6.770;2023-02-19T08:05:59;101964.44;;;9.60;100.00
3294;BME280;1659;51.470;6.770;2023-02-19T08:08:26;101975.94;;;9.67;100.00
3294;BME280;1659;51.470;6.770;2023-02-19T08:10:52;101975.94;;;9.69;100.00
3294;BME280;1659;51.470;6.770;2023-02-19T08:13:37;101972.41;;;9.71;100.00
3294;BME280;1659;51.470;6.770;2023-02-19T08:16:12;101974.19;;;9.72;100.00
3294;BME280;1659;51.470;6.770;2023-02-19T08:18:41;101963.63;;;9.72;100.00
3294;BME280;1659;51.470;6.770;2023-02-19T08:21:08;101971.53;;;9.71;100.00
3294;BME280;1659;51.470;6.770;2023-02-19T08:23:34;101984.72;;;9.68;100.00
3294;BME280;1659;51.470;6.770;2023-02-19T08:26:01;101980.34;;;9.67;100.00
3294;BME280;1659;51.470;6.770;2023-02-19T08:28:29;101987.34;;;9.68;100.00
3294;BME280;1659;51.470;6.770;2023-02-19T08:30:58;101982.97;;;9.67;100.00
3294;BME280;1659;51.470;6.770;2023-02-19T08:33:25;101984.72;;;9.69;100.00
3294;BME280;1659;51.470;6.770;2023-02-19T08:35:53;101981.25;;;9.73;100.00
3294;BME280;1659;51.470;6.770;2023-02-19T08:38:20;101984.78;;;9.77;100.00
3294;BME280;1659;51.470;6.770;2023-02-19T08:40:47;101982.16;;;9.77;100.00
3294;BME280;1659;51.470;6.770;2023-02-19T08:43:15;101986.50;;;9.75;100.00
3294;BME280;1659;51.470;6.770;2023-02-19T08:45:44;101991.78;;;9.75;100.00
3294;BME280;1659;51.470;6.770;2023-02-19T08:48:11;101996.19;;;9.74;100.00
3294;BME280;1659;51.470;6.770;2023-02-19T08:50:38;101997.97;;;9.75;100.00
3294;BME280;1659;51.470;6.770;2023-02-19T08:53:06;101995.34;;;9.83;100.00
3294;BME280;1659;51.470;6.770;2023-02-19T08:55:33;101991.00;;;9.94;100.00
3294;BME280;1659;51.470;6.770;2023-02-19T08:57:59;101990.19;;;10.17;100.00
3294;BME280;1659;51.470;6.770;2023-02-19T09:00:26;101981.41;;;10.30;100.00
3294;BME280;1659;51.470;6.770;2023-02-19T09:02:52;101993.78;;;10.34;100.00
3294;BME280;1659;51.470;6.770;2023-02-19T09:05:19;101998.22;;;10.42;100.00
3294;BME280;1659;51.470;6.770;2023-02-19T09:07:45;102005.25;;;10.44;100.00
3294;BME280;1659;51.470;6.770;2023-02-19T09:10:13;102016.69;;;10.45;100.00
3294;BME280;1659;51.470;6.770;2023-02-19T09:12:40;102031.69;;;10.38;100.00
3294;BME280;1659;51.470;6.770;2023-02-19T09:15:07;102033.41;;;10.33;100.00
3294;BME280;1659;51.470;6.770;2023-02-19T09:17:34;102041.28;;;10.27;100.00
3294;BME280;1659;51.470;6.770;2023-02-19T09:20:00;102038.63;;;10.19;100.00
3294;BME280;1659;51.470;6.770;2023-02-19T09:22:27;102042.09;;;10.13;100.00
3294;BME280;1659;51.470;6.770;2023-02-19T09:24:54;102047.41;;;10.12;100.00
3294;BME280;1659;51.470;6.770;2023-02-19T09:27:21;102042.97;;;10.08;100.00
3294;BME280;1659;51.470;6.770;2023-02-19T09:29:48;102050.91;;;10.08;100.00
3294;BME280;1659;51.470;6.770;2023-02-19T09:32:14;102065.00;;;10.10;100.00
3294;BME280;1659;51.470;6.770;2023-02-19T09:34:41;102051.78;;;10.11;100.00
3294;BME280;1659;51.470;6.770;2023-02-19T09:37:07;102043.88;;;10.11;100.00
3294;BME280;1659;51.470;6.770;2023-02-19T09:39:34;102050.03;;;10.13;100.00
3294;BME280;1659;51.470;6.770;2023-02-19T09:42:03;102049.19;;;10.16;100.00
3294;BME280;1659;51.470;6.770;2023-02-19T09:44:39;102055.38;;;10.21;100.00
3294;BME280;1659;51.470;6.770;2023-02-19T09:47:11;102067.66;;;10.22;100.00
3294;BME280;1659;51.470;6.770;2023-02-19T09:49:43;102063.28;;;10.21;100.00
3294;BME280;1659;51.470;6.770;2023-02-19T09:52:18;102071.22;;;10.21;100.00
3294;BME280;1659;51.470;6.770;2023-02-19T09:54:48;102071.19;;;10.19;100.00
3294;BME280;1659;51.470;6.770;2023-02-19T09:57:17;102073.84;;;10.19;100.00
3294;BME280;1659;51.470;6.770;2023-02-19T09:59:48;102086.19;;;10.19;100.00
3294;BME280;1659;51.470;6.770;2023-02-19T10:02:16;102098.50;;;10.20;100.00
3294;BME280;1659;51.470;6.770;2023-02-19T10:04:44;102101.13;;;10.18;100.00
3294;BME280;1659;51.470;6.770;2023-02-19T10:07:12;102107.31;;;10.17;100.00
3294;BME280;1659;51.470;6.770;2023-02-19T10:09:39;102123.16;;;10.19;100.00
3294;BME280;1659;51.470;6.770;2023-02-19T10:12:13;102126.72;;;10.24;100.00
3294;BME280;1659;51.470;6.770;2023-02-19T10:14:44;102132.06;;;10.35;100.00
3294;BME280;1659;51.470;6.770;2023-02-19T10:17:20;102122.44;;;10.57;100.00
3294;BME280;1659;51.470;6.770;2023-02-19T10:19:48;102110.16;;;10.77;100.00
3294;BME280;1659;51.470;6.770;2023-02-19T10:22:15;102122.53;;;10.92;100.00
3294;BME280;1659;51.470;6.770;2023-02-19T10:24:43;102129.59;;;11.04;100.00
3294;BME280;1659;51.470;6.770;2023-02-19T10:27:12;102133.13;;;11.09;100.00
3294;BME280;1659;51.470;6.770;2023-02-19T10:29:38;102146.38;;;11.22;100.00
3294;BME280;1659;51.470;6.770;2023-02-19T10:32:13;102141.09;;;11.42;100.00
3294;BME280;1659;51.470;6.770;2023-02-19T10:34:42;102148.13;;;11.64;100.00
3294;BME280;1659;51.470;6.770;2023-02-19T10:37:11;102155.16;;;11.82;100.00
3294;BME280;1659;51.470;6.770;2023-02-19T10:39:41;102140.19;;;11.92;100.00
3294;BME280;1659;51.470;6.770;2023-02-19T10:42:17;102149.88;;;11.93;98.88
3294;BME280;1659;51.470;6.770;2023-02-19T10:44:46;102157.81;;;11.99;98.11
3294;BME280;1659;51.470;6.770;2023-02-19T10:47:19;102161.34;;;12.04;97.36
3294;BME280;1659;51.470;6.770;2023-02-19T10:49:47;102170.16;;;12.05;97.42
3294;BME280;1659;51.470;6.770;2023-02-19T10:52:19;102160.47;;;12.04;96.99
3294;BME280;1659;51.470;6.770;2023-02-19T10:54:50;102161.34;;;12.00;96.81
3294;BME280;1659;51.470;6.770;2023-02-19T10:57:25;102165.78;;;11.93;95.81
3294;BME280;1659;51.470;6.770;2023-02-19T10:59:58;102168.41;;;11.79;95.58
3294;BME280;1659;51.470;6.770;2023-02-19T11:02:29;102175.50;;;11.69;95.36
3294;BME280;1659;51.470;6.770;2023-02-19T11:05:14;102170.19;;;11.66;95.67
3294;BME280;1659;51.470;6.770;2023-02-19T11:07:43;102179.91;;;11.57;95.62
3294;BME280;1659;51.470;6.770;2023-02-19T11:10:20;102194.03;;;11.43;96.08
3294;BME280;1659;51.470;6.770;2023-02-19T11:12:49;102199.28;;;11.25;95.74
3294;BME280;1659;51.470;6.770;2023-02-19T11:15:20;102192.22;;;11.08;95.92
3294;BME280;1659;51.470;6.770;2023-02-19T11:17:55;102185.16;;;11.07;96.46
3294;BME280;1659;51.470;6.770;2023-02-19T11:20:23;102182.50;;;11.04;96.87
3294;BME280;1659;51.470;6.770;2023-02-19T11:22:50;102195.75;;;11.10;96.94
3294;BME280;1659;51.470;6.770;2023-02-19T11:25:19;102201.94;;;11.25;97.68
3294;BME280;1659;51.470;6.770;2023-02-19T11:27:54;102189.63;;;11.36;96.73
3294;BME280;1659;51.470;6.770;2023-02-19T11:30:36;102180.78;;;11.39;96.61
3294;BME280;1659;51.470;6.770;2023-02-19T11:33:24;102179.03;;;11.38;96.63
3294;BME280;1659;51.470;6.770;2023-02-19T11:35:57;102177.25;;;11.35;96.34
3294;BME280;1659;51.470;6.770;2023-02-19T11:38:25;102180.78;;;11.36;96.54
3294;BME280;1659;51.470;6.770;2023-02-19T11:40:59;102183.44;;;11.31;96.16
3294;BME280;1659;51.470;6.770;2023-02-19T11:43:40;102176.38;;;11.19;96.17
3294;BME280;1659;51.470;6.770;2023-02-19T11:46:16;102181.63;;;11.07;96.20
3294;BME280;1659;51.470;6.770;2023-02-19T11:48:56;102170.16;;;10.92;95.99
3294;BME280;1659;51.470;6.770;2023-02-19T11:51:39;102176.28;;;10.81;95.91
3294;BME280;1659;51.470;6.770;2023-02-19T11:54:24;102167.44;;;10.75;96.51
3294;BME280;1659;51.470;6.770;2023-02-19T11:57:02;102169.22;;;10.76;97.28
3294;BME280;1659;51.470;6.770;2023-02-19T11:59:41;102169.22;;;10.80;97.28
3294;BME280;1659;51.470;6.770;2023-02-19T12:02:30;102177.16;;;10.84;97.52
3294;BME280;1659;51.470;6.770;2023-02-19T12:05:25;102178.94;;;10.91;97.29
3294;BME280;1659;51.470;6.770;2023-02-19T12:08:20;102183.38;;;10.97;97.15
3294;BME280;1659;51.470;6.770;2023-02-19T12:11:02;102188.66;;;10.97;96.72
3294;BME280;1659;51.470;6.770;2023-02-19T12:13:50;102200.97;;;10.92;96.01
3294;BME280;1659;51.470;6.770;2023-02-19T12:16:24;102195.66;;;10.78;94.94
3294;BME280;1659;51.470;6.770;2023-02-19T12:19:31;102205.28;;;10.54;94.12
3294;BME280;1659;51.470;6.770;2023-02-19T12:22:15;102210.44;;;10.36;95.13
3294;BME280;1659;51.470;6.770;2023-02-19T12:27:51;102210.34;;;10.22;95.88
3294;BME280;1659;51.470;6.770;2023-02-19T12:30:32;102219.19;;;10.24;96.17
3294;BME280;1659;51.470;6.770;2023-02-19T12:33:13;102213.91;;;10.30;96.15
3294;BME280;1659;51.470;6.770;2023-02-19T12:35:51;102213.09;;;10.37;96.37
3294;BME280;1659;51.470;6.770;2023-02-19T12:38:27;102205.25;;;10.47;96.24
3294;BME280;1659;51.470;6.770;2023-02-19T12:41:12;102200.00;;;10.57;95.89
3294;BME280;1659;51.470;6.770;2023-02-19T12:43:45;102203.53;;;10.66;95.50
3294;BME280;1659;51.470;6.770;2023-02-19T12:46:19;102200.06;;;10.77;95.62
3294;BME280;1659;51.470;6.770;2023-02-19T12:48:51;102202.75;;;10.90;95.31
3294;BME280;1659;51.470;6.770;2023-02-19T12:51:24;102211.56;;;10.92;94.71
3294;BME280;1659;51.470;6.770;2023-02-19T12:53:56;102202.75;;;10.93;94.33
3294;BME280;1659;51.470;6.770;2023-02-19T12:56:28;102208.03;;;10.91;94.36
3294;BME280;1659;51.470;6.770;2023-02-19T12:58:59;102209.84;;;10.94;94.13
3294;BME280;1659;51.470;6.770;2023-02-19T13:01:30;102212.47;;;10.94;94.00
3294;BME280;1659;51.470;6.770;2023-02-19T13:04:13;102223.03;;;10.88;93.55
3294;BME280;1659;51.470;6.770;2023-02-19T13:06:44;102223.00;;;10.83;93.85
3294;BME280;1659;51.470;6.770;2023-02-19T13:09:17;102223.00;;;10.79;93.94
3294;BME280;1659;51.470;6.770;2023-02-19T13:11:48;102219.44;;;10.73;94.06
3294;BME280;1659;51.470;6.770;2023-02-19T13:14:21;102230.88;;;10.71;93.95
3294;BME280;1659;51.470;6.770;2023-02-19T13:16:55;102227.34;;;10.66;94.17
3294;BME280;1659;51.470;6.770;2023-02-19T13:19:23;102227.31;;;10.60;93.89
3294;BME280;1659;51.470;6.770;2023-02-19T13:21:54;102217.63;;;10.60;93.85
3294;BME280;1659;51.470;6.770;2023-02-19T13:24:43;102215.91;;;10.70;94.00
3294;BME280;1659;51.470;6.770;2023-02-19T13:27:40;102215.03;;;10.66;93.75
3294;BME280;1659;51.470;6.770;2023-02-19T13:30:33;102223.78;;;10.62;93.68
3294;BME280;1659;51.470;6.770;2023-02-19T13:33:12;102226.44;;;10.59;94.14
3294;BME280;1659;51.470;6.770;2023-02-19T13:35:59;102237.91;;;10.61;94.27
3294;BME280;1659;51.470;6.770;2023-02-19T13:38:30;102237.91;;;10.63;94.52